createdAt,value
2019-04-18T00:08:41.102Z,98.40
2019-04-18T00:11:21.883Z,99.00
2019-04-18T00:14:05.823Z,99.00
2019-04-18T00:16:45.083Z,99.00
2019-04-18T00:19:26.215Z,99.10
2019-04-18T00:22:07.266Z,99.20
2019-04-18T00:24:48.147Z,99.30
2019-04-18T00:27:29.450Z,99.60
2019-04-18T00:30:10.665Z,99.30
2019-04-18T00:32:50.971Z,99.00
2019-04-18T00:35:20.142Z,99.30
2019-04-18T00:38:08.625Z,99.00
2019-04-18T00:40:58.308Z,99.00
2019-04-18T00:43:46.898Z,99.10
2019-04-18T00:46:35.468Z,99.30
2019-04-18T00:49:04.737Z,99.60
2019-04-18T00:51:53.239Z,99.60
2019-04-18T00:54:41.476Z,99.60
2019-04-18T00:57:29.947Z,99.10
2019-04-18T01:03:35.583Z,99.30
2019-04-18T01:06:24.140Z,99.10
2019-04-18T01:09:13.138Z,99.20
2019-04-18T01:12:01.867Z,99.00
2019-04-18T01:14:50.563Z,99.10
2019-04-18T01:17:34.226Z,99.60
2019-04-18T01:20:13.924Z,99.40
2019-04-18T01:22:54.395Z,99.60
2019-04-18T01:25:36.761Z,99.60
2019-04-18T01:28:17.872Z,99.40
2019-04-18T01:30:58.736Z,99.40
2019-04-18T01:33:39.811Z,99.70
2019-04-18T01:39:05.977Z,99.60
2019-04-18T01:47:39.825Z,99.90
2019-04-18T01:50:28.077Z,99.90
2019-04-18T01:53:16.363Z,99.90
2019-04-18T01:56:04.765Z,99.90
2019-04-18T01:58:53.286Z,99.90
2019-04-18T02:01:41.873Z,99.90
2019-04-18T02:04:30.112Z,99.90
2019-04-18T02:07:18.403Z,99.90
2019-04-18T02:10:06.654Z,99.90
2019-04-18T02:12:54.937Z,99.90
2019-04-18T02:15:43.184Z,99.90
2019-04-18T02:18:24.019Z,99.90
2019-04-18T02:20:53.863Z,99.90
2019-04-18T02:23:42.085Z,99.90
2019-04-18T02:26:30.395Z,99.90
2019-04-18T02:29:01.281Z,99.90
2019-04-18T02:31:30.464Z,99.90
2019-04-18T02:34:19.856Z,99.90
2019-04-18T02:37:11.373Z,99.90
2019-04-18T02:40:00.907Z,99.90
2019-04-18T02:42:50.167Z,99.90
2019-04-18T02:45:38.236Z,99.90
2019-04-18T02:48:26.663Z,99.90
2019-04-18T02:51:17.214Z,99.90
2019-04-18T02:54:10.051Z,99.90
2019-04-18T02:56:59.320Z,99.90
2019-04-18T03:00:06.573Z,99.90
2019-04-18T03:03:01.339Z,99.90
2019-04-18T03:05:33.207Z,99.90
2019-04-18T03:08:02.740Z,99.90
2019-04-18T03:10:31.875Z,99.90
2019-04-18T03:13:01.983Z,99.90
2019-04-18T03:15:31.818Z,99.90
2019-04-18T03:18:02.850Z,99.90
2019-04-18T03:20:32.192Z,99.90
2019-04-18T03:23:05.632Z,99.90
2019-04-18T03:25:32.236Z,99.90
2019-04-18T03:28:20.526Z,99.90
2019-04-18T03:30:50.028Z,99.90
2019-04-18T03:33:23.453Z,99.90
2019-04-18T03:35:53.234Z,99.90
2019-04-18T03:38:21.120Z,99.90
2019-04-18T03:40:50.248Z,99.90
2019-04-18T03:43:19.427Z,99.90
2019-04-18T03:46:04.014Z,99.90
2019-04-18T03:48:35.055Z,99.90
2019-04-18T03:51:06.199Z,99.90
2019-04-18T03:53:35.230Z,99.90
2019-04-18T03:56:04.477Z,99.90
2019-04-18T03:58:33.596Z,99.90
2019-04-18T04:01:03.443Z,99.90
2019-04-18T04:03:32.961Z,99.90
2019-04-18T04:06:14.658Z,99.90
2019-04-18T04:08:33.096Z,99.90
2019-04-18T04:11:02.275Z,99.90
2019-04-18T04:13:33.023Z,99.90
2019-04-18T04:16:02.862Z,99.90
2019-04-18T04:18:51.013Z,99.90
2019-04-18T04:21:20.290Z,99.90
2019-04-18T04:23:49.407Z,99.90
2019-04-18T04:26:18.652Z,99.90
2019-04-18T04:28:48.008Z,99.90
2019-04-18T04:31:22.229Z,99.90
2019-04-18T04:33:48.630Z,99.90
2019-04-18T04:36:24.108Z,99.90
2019-04-18T04:38:52.056Z,99.90
2019-04-18T04:41:19.879Z,99.90
2019-04-18T04:43:51.053Z,99.90
2019-04-18T04:46:20.596Z,99.90
2019-04-18T04:48:50.083Z,99.90
2019-04-18T04:51:54.122Z,99.90
2019-04-18T04:54:31.827Z,99.90
2019-04-18T04:57:20.909Z,99.90
2019-04-18T04:59:57.399Z,99.90
2019-04-18T05:02:26.679Z,99.90
2019-04-18T05:05:01.823Z,99.90
2019-04-18T05:07:31.023Z,99.90
2019-04-18T05:10:00.690Z,99.90
2019-04-18T05:12:30.177Z,99.90
2019-04-18T05:15:09.876Z,99.90
2019-04-18T05:17:36.744Z,99.90
2019-04-18T05:20:06.708Z,99.90
2019-04-18T05:22:36.234Z,99.90
2019-04-18T05:25:09.814Z,99.90
2019-04-18T05:27:37.151Z,99.90
2019-04-18T05:30:06.911Z,99.90
2019-04-18T05:32:36.559Z,99.90
2019-04-18T05:35:06.055Z,99.90
2019-04-18T05:37:35.215Z,99.90
2019-04-18T05:40:05.384Z,99.90
2019-04-18T05:42:35.207Z,99.90
2019-04-18T05:45:08.534Z,99.90
2019-04-18T05:47:49.549Z,99.90
2019-04-18T05:50:22.663Z,99.90
2019-04-18T05:53:01.110Z,99.90
2019-04-18T05:55:30.519Z,99.90
2019-04-18T05:58:17.458Z,99.90
2019-04-18T06:01:02.185Z,99.90
2019-04-18T06:03:51.371Z,99.90
2019-04-18T06:06:45.387Z,99.90
2019-04-18T06:09:15.743Z,99.90
2019-04-18T06:11:48.499Z,99.90
2019-04-18T06:14:24.463Z,99.90
2019-04-18T06:17:15.926Z,99.90
2019-04-18T06:19:45.606Z,99.90
2019-04-18T06:22:20.892Z,99.90
2019-04-18T06:24:55.784Z,99.90
2019-04-18T06:27:43.124Z,99.90
2019-04-18T06:30:31.447Z,99.90
2019-04-18T06:33:26.727Z,99.90
2019-04-18T06:35:53.320Z,99.90
2019-04-18T06:38:22.530Z,99.90
2019-04-18T06:40:51.681Z,99.90
2019-04-18T06:43:24.671Z,99.90
2019-04-18T06:45:52.214Z,99.90
2019-04-18T06:48:22.025Z,99.90
2019-04-18T06:50:56.844Z,99.90
2019-04-18T06:53:23.396Z,99.90
2019-04-18T06:55:52.957Z,99.90
2019-04-18T06:58:35.137Z,99.90
2019-04-18T07:00:59.123Z,99.90
2019-04-18T07:03:29.907Z,99.90
2019-04-18T07:06:00.440Z,99.90
2019-04-18T07:08:44.921Z,99.90
2019-04-18T07:11:17.949Z,99.90
2019-04-18T07:13:52.504Z,99.90
2019-04-18T07:16:23.051Z,99.90
2019-04-18T07:18:52.232Z,99.90
2019-04-18T07:21:30.018Z,99.90
2019-04-18T07:24:00.773Z,99.90
2019-04-18T07:26:30.007Z,99.90
2019-04-18T07:28:59.794Z,99.90
2019-04-18T07:31:32.199Z,99.90
2019-04-18T07:34:00.645Z,99.90
2019-04-18T07:36:30.233Z,99.90
2019-04-18T07:39:00.899Z,99.90
2019-04-18T07:41:30.995Z,99.90
2019-04-18T07:44:00.415Z,99.90
2019-04-18T07:46:30.532Z,99.90
2019-04-18T07:49:00.338Z,99.90
2019-04-18T07:51:29.921Z,99.90
2019-04-18T07:54:09.069Z,99.90
2019-04-18T07:56:41.502Z,99.90
2019-04-18T07:59:14.572Z,99.90
2019-04-18T08:01:40.559Z,99.90
2019-04-18T08:04:14.981Z,99.90
2019-04-18T08:06:40.778Z,99.90
2019-04-18T08:09:10.021Z,99.90
2019-04-18T08:11:39.231Z,99.90
2019-04-18T08:14:09.329Z,99.90
2019-04-18T08:16:41.296Z,99.90
2019-04-18T08:19:09.969Z,99.90
2019-04-18T08:21:39.295Z,99.90
2019-04-18T08:24:10.312Z,99.90
2019-04-18T08:26:39.750Z,99.90
2019-04-18T08:29:21.917Z,99.90
2019-04-18T08:31:40.008Z,99.90
2019-04-18T08:34:09.978Z,99.90
2019-04-18T08:36:39.216Z,99.90
2019-04-18T08:39:21.968Z,99.90
2019-04-18T08:42:09.362Z,99.90
2019-04-18T08:44:42.990Z,99.90
2019-04-18T08:47:14.444Z,99.90
2019-04-18T08:49:53.131Z,99.90
2019-04-18T08:52:23.650Z,99.90
2019-04-18T08:55:10.126Z,99.90
2019-04-18T08:57:41.277Z,99.90
2019-04-18T09:00:13.226Z,99.90
2019-04-18T09:02:42.661Z,99.90
2019-04-18T09:05:21.868Z,99.90
2019-04-18T09:07:42.918Z,99.90
2019-04-18T09:10:13.214Z,99.90
2019-04-18T09:12:43.590Z,99.90
2019-04-18T09:15:14.178Z,99.90
2019-04-18T09:17:47.371Z,99.90
2019-04-18T09:20:16.851Z,99.90
2019-04-18T09:22:47.306Z,99.90
2019-04-18T09:25:17.612Z,99.90
2019-04-18T09:27:48.375Z,99.90
2019-04-18T09:30:25.466Z,99.90
2019-04-18T09:32:55.549Z,99.90
2019-04-18T09:35:25.742Z,99.90
2019-04-18T09:37:55.201Z,99.90
2019-04-18T09:40:29.182Z,99.90
2019-04-18T09:42:55.915Z,99.90
2019-04-18T09:45:30.984Z,99.90
2019-04-18T09:47:58.509Z,99.90
2019-04-18T09:50:28.157Z,99.60
2019-04-18T09:52:57.817Z,99.00
2019-04-18T09:55:26.993Z,99.00
2019-04-18T09:57:56.148Z,98.70
2019-04-18T10:00:26.494Z,99.00
2019-04-18T10:02:57.385Z,98.80
2019-04-18T10:05:28.127Z,98.70
2019-04-18T10:07:58.962Z,98.20
2019-04-18T10:10:28.515Z,99.10
2019-04-18T10:12:59.164Z,97.80
2019-04-18T10:15:29.378Z,98.00
2019-04-18T10:17:59.401Z,98.40
2019-04-18T10:20:30.861Z,97.30
2019-04-18T10:23:06.498Z,97.40
2019-04-18T10:25:51.827Z,96.80
2019-04-18T10:28:22.046Z,96.80
2019-04-18T10:31:05.211Z,96.90
2019-04-18T10:33:35.716Z,97.60
2019-04-18T10:36:06.970Z,96.50
2019-04-18T10:38:36.705Z,96.30
2019-04-18T10:41:06.258Z,96.00
2019-04-18T10:43:35.843Z,95.80
2019-04-18T10:46:10.043Z,95.30
2019-04-18T10:48:38.142Z,95.20
2019-04-18T10:51:08.219Z,95.00
2019-04-18T10:53:38.121Z,94.60
2019-04-18T10:56:07.704Z,95.90
2019-04-18T10:58:39.068Z,95.00
2019-04-18T11:01:12.613Z,94.60
2019-04-18T11:03:40.740Z,96.30
2019-04-18T11:06:20.571Z,96.40
2019-04-18T11:08:45.634Z,95.60
2019-04-18T11:11:16.268Z,94.80
2019-04-18T11:13:48.357Z,93.60
2019-04-18T11:16:21.712Z,93.50
2019-04-18T11:19:01.801Z,94.20
2019-04-18T11:21:33.196Z,94.00
2019-04-18T11:24:06.565Z,94.70
2019-04-18T11:26:40.206Z,94.30
2019-04-18T11:29:12.664Z,94.00
2019-04-18T11:31:43.746Z,93.10
2019-04-18T11:34:18.279Z,92.50
2019-04-18T11:36:50.195Z,91.50
2019-04-18T11:39:25.081Z,92.70
2019-04-18T11:41:59.303Z,92.70
2019-04-18T11:44:29.289Z,92.00
2019-04-18T11:46:59.349Z,91.60
2019-04-18T11:49:32.754Z,93.30
2019-04-18T11:52:20.900Z,93.00
2019-04-18T11:57:23.375Z,91.40
2019-04-18T12:00:00.831Z,91.20
2019-04-18T12:02:36.038Z,90.70
2019-04-18T12:05:13.989Z,91.00
2019-04-18T12:07:45.460Z,91.50
2019-04-18T12:10:16.558Z,90.90
2019-04-18T12:12:47.771Z,91.10
2019-04-18T12:15:19.855Z,91.20
2019-04-18T12:17:49.424Z,90.70
2019-04-18T12:20:19.773Z,91.10
2019-04-18T12:22:50.168Z,90.40
2019-04-18T12:25:20.053Z,91.10
2019-04-18T12:27:50.262Z,90.80
2019-04-18T12:30:21.352Z,90.40
2019-04-18T12:32:51.896Z,90.40
2019-04-18T12:35:23.160Z,90.00
2019-04-18T12:37:53.978Z,90.30
2019-04-18T12:40:24.364Z,90.00
2019-04-18T12:42:55.066Z,90.20
2019-04-18T12:45:25.659Z,90.10
2019-04-18T12:47:56.156Z,87.60
2019-04-18T12:50:31.550Z,88.20
2019-04-18T12:53:02.287Z,88.30
2019-04-18T12:55:46.399Z,89.70
2019-04-18T12:58:16.783Z,86.50
2019-04-18T13:00:46.694Z,84.90
2019-04-18T13:03:16.926Z,84.30
2019-04-18T13:06:28.728Z,84.00
2019-04-18T13:09:19.783Z,85.70
2019-04-18T13:11:55.396Z,85.30
2019-04-18T13:14:54.075Z,84.60
2019-04-18T13:17:35.787Z,85.40
2019-04-18T13:20:07.150Z,85.80
2019-04-18T13:25:07.023Z,85.20
2019-04-18T13:27:37.098Z,85.80
2019-04-18T13:30:08.398Z,85.50
2019-04-18T13:32:40.039Z,87.90
2019-04-18T13:35:10.872Z,87.60
2019-04-18T13:37:41.170Z,85.90
2019-04-18T13:40:12.321Z,86.20
2019-04-18T13:42:43.468Z,86.30
2019-04-18T13:45:14.910Z,87.10
2019-04-18T13:47:46.458Z,88.00
2019-04-18T13:50:20.296Z,87.40
2019-04-18T13:52:50.603Z,85.80
2019-04-18T13:55:21.584Z,83.90
2019-04-18T13:57:51.862Z,83.10
2019-04-18T14:00:23.652Z,82.90
2019-04-18T14:02:53.333Z,81.80
2019-04-18T14:05:23.319Z,82.30
2019-04-18T14:07:53.332Z,80.90
2019-04-18T14:10:24.516Z,81.40
2019-04-18T14:12:55.159Z,81.80
2019-04-18T14:15:33.726Z,82.20
2019-04-18T14:18:04.412Z,84.60
2019-04-18T14:20:34.664Z,84.60
2019-04-18T14:23:05.002Z,84.80
2019-04-18T14:25:35.554Z,86.30
2019-04-18T14:28:05.478Z,84.70
2019-04-18T14:30:35.071Z,84.00
2019-04-18T14:33:05.770Z,82.70
2019-04-18T14:35:36.893Z,82.10
2019-04-18T14:38:17.982Z,81.20
2019-04-18T14:40:48.093Z,80.80
2019-04-18T14:43:20.467Z,82.40
2019-04-18T14:45:49.935Z,82.00
2019-04-18T14:48:20.721Z,81.70
2019-04-18T14:50:51.328Z,80.40
2019-04-18T14:53:21.883Z,80.40
2019-04-18T14:55:53.124Z,81.00
2019-04-18T14:58:23.512Z,81.30
2019-04-18T15:00:53.750Z,80.90
2019-04-18T15:03:28.076Z,80.00
2019-04-18T15:05:56.787Z,77.70
2019-04-18T15:08:29.428Z,77.50
2019-04-18T15:11:00.274Z,78.20
2019-04-18T15:13:30.617Z,79.10
2019-04-18T15:16:00.712Z,79.20
2019-04-18T15:18:31.399Z,78.00
2019-04-18T15:21:02.555Z,78.30
2019-04-18T15:23:34.022Z,78.70
2019-04-18T15:26:06.066Z,76.60
2019-04-18T15:28:40.719Z,76.80
2019-04-18T15:31:12.295Z,77.60
2019-04-18T15:33:45.646Z,77.90
2019-04-18T15:36:18.327Z,78.20
2019-04-18T15:38:50.067Z,78.30
2019-04-18T15:42:05.488Z,79.30
2019-04-18T15:44:44.823Z,79.00
2019-04-18T15:47:25.167Z,77.30
2019-04-18T15:49:55.867Z,76.90
2019-04-18T15:52:26.752Z,76.30
2019-04-18T15:54:58.524Z,76.50
2019-04-18T15:57:31.021Z,76.50
2019-04-18T16:00:01.527Z,76.10
2019-04-18T16:02:31.671Z,76.80
2019-04-18T16:05:02.894Z,76.90
2019-04-18T16:07:33.287Z,77.40
2019-04-18T16:10:18.423Z,78.60
2019-04-18T16:12:37.293Z,77.40
2019-04-18T16:15:20.227Z,77.00
2019-04-18T16:17:50.010Z,77.60
2019-04-18T16:20:21.188Z,77.80
2019-04-18T16:22:52.034Z,78.40
2019-04-18T16:25:23.103Z,77.90
2019-04-18T16:27:53.869Z,78.20
2019-04-18T16:30:27.133Z,77.40
2019-04-18T16:32:56.559Z,77.80
2019-04-18T16:35:28.943Z,77.60
2019-04-18T16:37:58.443Z,77.30
2019-04-18T16:40:28.017Z,76.70
2019-04-18T16:42:57.494Z,76.10
2019-04-18T16:45:26.848Z,76.20
2019-04-18T16:47:56.056Z,77.60
2019-04-18T16:50:25.675Z,78.20
2019-04-18T16:53:14.079Z,78.20
2019-04-18T16:56:02.396Z,78.80
2019-04-18T16:58:50.632Z,77.70
2019-04-18T17:01:38.860Z,78.20
2019-04-18T17:04:12.884Z,78.10
2019-04-18T17:06:58.274Z,77.40
2019-04-18T17:09:46.553Z,77.20
2019-04-18T17:12:35.117Z,75.80
2019-04-18T17:15:23.663Z,76.40
2019-04-18T17:18:04.615Z,77.40
2019-04-18T17:20:45.387Z,77.10
2019-04-18T17:23:27.025Z,77.00
2019-04-18T17:28:39.457Z,76.90
2019-04-18T17:31:27.781Z,77.80
2019-04-18T17:34:27.701Z,78.20
2019-04-18T17:37:19.840Z,78.00
2019-04-18T17:40:11.925Z,77.60
2019-04-18T17:42:52.396Z,77.10
2019-04-18T17:45:36.126Z,78.00
2019-04-18T17:48:05.430Z,79.00
2019-04-18T17:50:54.954Z,77.30
2019-04-18T17:53:52.685Z,77.90
2019-04-18T17:56:40.629Z,78.00
2019-04-18T17:59:25.039Z,78.00
2019-04-18T18:02:20.486Z,77.50
2019-04-18T18:05:14.870Z,77.80
2019-04-18T18:07:55.796Z,77.60
2019-04-18T18:10:44.799Z,76.80
2019-04-18T18:13:34.047Z,77.70
2019-04-18T18:16:30.230Z,77.00
2019-04-18T18:19:20.683Z,76.20
2019-04-18T18:22:07.993Z,77.00
2019-04-18T18:24:55.016Z,76.70
2019-04-18T18:27:48.261Z,77.00
2019-04-18T18:30:36.222Z,76.90
2019-04-18T18:33:25.027Z,77.10
2019-04-18T18:38:52.054Z,76.70
2019-04-18T18:41:21.327Z,76.70
2019-04-18T18:44:13.456Z,77.10
2019-04-18T18:46:59.778Z,76.40
2019-04-18T18:49:49.622Z,76.60
2019-04-18T18:52:39.425Z,76.30
2019-04-18T18:55:29.624Z,76.80
2019-04-18T18:57:59.872Z,76.90
2019-04-18T19:00:49.118Z,77.60
2019-04-18T19:03:37.930Z,77.20
2019-04-18T19:06:38.231Z,77.30
2019-04-18T19:09:34.739Z,77.70
2019-04-18T19:12:16.899Z,77.30
2019-04-18T19:15:06.275Z,78.00
2019-04-18T19:17:40.478Z,78.00
2019-04-18T19:20:21.997Z,78.20
2019-04-18T19:23:02.619Z,78.40
2019-04-18T19:25:45.152Z,78.30
2019-04-18T19:28:30.569Z,78.60
2019-04-18T19:31:12.498Z,78.30
2019-04-18T19:33:53.047Z,78.50
2019-04-18T19:39:37.708Z,78.50
2019-04-18T19:42:08.854Z,78.60
2019-04-18T19:44:42.510Z,79.10
2019-04-18T19:47:25.049Z,78.90
2019-04-18T19:50:07.154Z,79.10
2019-04-18T19:52:48.896Z,79.10
2019-04-18T19:55:32.438Z,79.20
2019-04-18T19:58:14.780Z,78.70
2019-04-18T20:00:56.485Z,79.10
2019-04-18T20:03:38.234Z,78.80
2019-04-18T20:09:16.785Z,79.60
2019-04-18T20:11:58.363Z,79.50
2019-04-18T20:14:27.579Z,79.30
2019-04-18T20:17:11.617Z,79.70
2019-04-18T20:19:51.361Z,79.70
2019-04-18T20:22:23.927Z,79.40
2019-04-18T20:25:10.819Z,80.20
2019-04-18T20:27:42.826Z,79.80
2019-04-18T20:30:31.575Z,80.20
2019-04-18T20:33:25.633Z,80.50
2019-04-18T20:36:33.321Z,80.60
2019-04-18T20:39:41.873Z,80.90
2019-04-18T20:42:15.577Z,81.20
2019-04-18T20:44:48.819Z,81.60
2019-04-18T20:47:45.769Z,82.00
2019-04-18T20:50:26.256Z,81.80
2019-04-18T20:53:34.901Z,82.10
2019-04-18T20:56:05.927Z,82.00
2019-04-18T20:58:54.077Z,81.30
2019-04-18T21:01:40.943Z,82.40
2019-04-18T21:04:29.582Z,81.90
2019-04-18T21:07:32.908Z,81.50
2019-04-18T21:10:15.787Z,82.00
2019-04-18T21:13:00.098Z,82.10
2019-04-18T21:15:50.981Z,81.60
2019-04-18T21:18:32.581Z,82.20
2019-04-18T21:23:44.863Z,82.20
2019-04-18T21:26:20.622Z,82.40
2019-04-18T21:28:56.739Z,82.50
2019-04-18T21:31:22.112Z,82.80
2019-04-18T21:34:13.836Z,82.60
2019-04-18T21:37:17.174Z,82.30
2019-04-18T21:39:52.541Z,82.50
2019-04-18T21:42:43.124Z,82.60
2019-04-18T21:45:34.620Z,82.30
2019-04-18T21:48:23.071Z,82.70
2019-04-18T21:51:14.159Z,82.90
2019-04-18T21:54:06.120Z,83.10
2019-04-18T21:56:54.893Z,83.10
2019-04-18T21:59:49.353Z,83.30
2019-04-18T22:02:37.748Z,82.90
2019-04-18T22:05:22.320Z,82.70
2019-04-18T22:08:17.190Z,83.00
2019-04-18T22:11:06.724Z,83.00
2019-04-18T22:13:50.876Z,83.10
2019-04-18T22:16:39.775Z,82.80
2019-04-18T22:19:21.725Z,83.00
2019-04-18T22:24:50.471Z,83.00
2019-04-18T22:27:28.079Z,82.80
2019-04-18T22:30:12.133Z,82.70
2019-04-18T22:32:43.347Z,82.80
2019-04-18T22:35:36.616Z,82.90
2019-04-18T22:38:20.990Z,83.00
2019-04-18T22:41:11.811Z,83.90
2019-04-18T22:44:01.518Z,84.10
2019-04-18T22:46:53.986Z,83.30
2019-04-18T22:49:41.726Z,83.00
2019-04-18T22:52:33.295Z,83.20
2019-04-18T22:55:23.905Z,83.20
2019-04-18T22:58:16.600Z,83.20
2019-04-18T23:01:06.377Z,83.00
2019-04-18T23:03:51.052Z,82.90
2019-04-18T23:06:42.014Z,83.10
2019-04-18T23:09:37.753Z,83.20
2019-04-18T23:12:21.156Z,83.40
2019-04-18T23:15:32.856Z,83.60
2019-04-18T23:18:23.569Z,83.70
2019-04-18T23:21:12.692Z,83.40
2019-04-18T23:24:03.305Z,83.70
2019-04-18T23:26:54.949Z,83.60
2019-04-18T23:29:45.442Z,84.00
2019-04-18T23:32:33.348Z,83.90
2019-04-18T23:35:21.549Z,84.00
2019-04-18T23:38:21.612Z,84.20
2019-04-18T23:41:05.195Z,84.60
2019-04-18T23:43:50.540Z,84.80
2019-04-18T23:46:38.759Z,84.60
2019-04-18T23:49:29.694Z,84.20
2019-04-18T23:52:21.891Z,84.40
2019-04-18T23:58:21.944Z,85.10
